Ecum Secum, Canada
Current Conditions -  °F | °C
As of 9:00 PM on Wednesday 22 Oct 2014 (Local Time) from CYPD Reporting Station
Overcast Overcast  
Wind Chill: 50°   Ceiling: 2300
Heat Index: 50°   Visibility: 9mi
Dew Point: 46°   Wind: 15mph
Humidity: 87%   Direction: 70°ENE
Pressure: 30.3"   Gusts: NA
Location:  44.97°N, 62.12°W
Report Text: CYPD 230000Z AUTO 07013KT 9SM FEW011 OVC023 10/08 A3030 RMK SLP263
Loading
Personal Weather Stations






























Interactive Weather Map
Tropical Storm Tracking
New forecast layout! Learn more

10-Day Weather Forecast

Advertisements
Track Severe Weather on mobile